Hovedside
METAR-TAF:

METAR-TAF

Lufthavner :

Halmstad, Sverige

Halmstad lufthavn

breddegrad: 56-41N, lengdegrad: 012-50E, høyde over havet: 30 m

Gjeldene værobservasjon

Denne rapporten ble laget for 33 minutter siden, klokken 13:50 UTC
Vind 9 kt fra Sørøst
Temperatur 6°C
Luftfuktighet 93%
Trykk 999 hPa
Sikt 10 km eller mer
Overskyet i en høyde av 300 ft

METAR: ESMT 221350Z 13009KT 9999 OVC003 06/05 Q0999

Tid: 15:23 (14:23 UTC)

Varsel

Denne rapporten ble laget for 1 time og 28 minutter siden, klokken 12:55 UTC
Varsel gyldig fra 22. klokken 12 UTC til 22. klokken 21 UTC
Vind 12 kt fra Sørøst
Sikt: 7000 m
Brutte skyer i en høyde av 600 ft
dis
Midlertidig
fra 22. klokken 12 UTC til 22. klokken 21 UTC
Sikt: 2000 m
Brutte skyer i en høyde av 300 ft
regn, duskregn
Blir
fra 22. klokken 18 UTC til 22. klokken 20 UTC
Vind 10 kt fra Sør

TAF: ESMT 221255Z 2212/2221 13012KT 7000 BR BKN006 TEMPO 2212/2221 2000 RADZ BKN003 BECMG 2218/2220 19010KT

Værobservasjoner og værvarsel for over 4000 flyplasser (METAR- og TAF-rapporter).

Tilgjengelige stasjoner er representert av de røde og gule prikkene på kartet.

Hold musepekeren over prikken for å se navnet på stasjonen.

Klikk så for å se værobservasjoner og -varsler.

For å forandre kartet kan du klikke på den grønne knappen med svart kryss for å zoome inn, på den grønne knappen med strek for å zoome ut, eller på de grønne pilene for å se tilstøtende kart.


METAR-TAF: